Time,TemperatureF,DewpointF,PressureIn,WindDirection,WindDirectionDegrees,WindSpeedMPH,WindSpeedGustMPH,Humidity,HourlyPrecipIn,Conditions,Clouds,dailyrainin,SoftwareType,DateUTC
2013-01-30 00:00:00,45.5,42.7,29.82,SSW,202,2.5,2.5,90,0.00,,---,0.05,VWS V14.01,2013-01-30 05:00:00,
2013-01-30 00:05:00,45.7,43.2,29.82,SSW,202,0.0,2.7,91,0.00,,---,0.00,VWS V14.01,2013-01-30 05:05:00,
2013-01-30 00:10:00,45.9,43.4,29.79,WSW,248,3.1,3.1,91,0.00,,---,0.00,VWS V14.01,2013-01-30 05:10:00,
2013-01-30 00:15:00,46.0,43.6,29.79,SSW,202,1.3,2.5,91,0.00,,---,0.00,VWS V14.01,2013-01-30 05:15:00,
2013-01-30 00:20:00,46.0,43.6,29.79,SSW,202,1.3,1.3,91,0.00,,---,0.00,VWS V14.01,2013-01-30 05:20:00,
2013-01-30 00:25:00,46.2,44.0,29.79,SSW,202,3.6,3.6,92,0.00,,---,0.00,VWS V14.01,2013-01-30 05:25:00,
2013-01-30 00:30:00,46.2,44.0,29.79,SSW,202,0.0,0.0,92,0.00,,---,0.00,VWS V14.01,2013-01-30 05:30:00,
2013-01-30 00:35:00,46.4,44.2,29.79,SSW,202,2.0,2.5,92,0.00,,---,0.00,VWS V14.01,2013-01-30 05:35:00,
2013-01-30 00:40:00,46.6,44.4,29.79,SSW,202,0.0,0.0,92,0.00,,---,0.00,VWS V14.01,2013-01-30 05:40:00,
2013-01-30 00:45:00,46.8,44.6,29.79,South,180,3.1,3.1,92,0.00,,---,0.00,VWS V14.01,2013-01-30 05:45:00,
2013-01-30 00:50:00,46.9,45.0,29.79,SSW,202,2.2,5.4,93,0.00,,---,0.00,VWS V14.01,2013-01-30 05:50:00,
2013-01-30 00:55:00,47.1,45.2,29.76,SSW,202,2.0,2.7,93,0.00,,---,0.00,VWS V14.01,2013-01-30 05:55:00,
2013-01-30 01:00:00,47.3,45.4,29.76,SSW,202,2.5,3.8,93,0.00,,---,0.00,VWS V14.01,2013-01-30 06:00:00,
2013-01-30 01:05:00,47.7,46.0,29.76,SW,225,2.0,5.8,94,0.00,,---,0.00,VWS V14.01,2013-01-30 06:05:00,
2013-01-30 01:10:00,47.7,46.0,29.79,SSW,202,3.4,3.4,94,0.00,,---,0.00,VWS V14.01,2013-01-30 06:10:00,
2013-01-30 01:15:00,47.8,46.2,29.79,SSW,202,2.7,2.9,94,0.00,,---,0.00,VWS V14.01,2013-01-30 06:15:00,
2013-01-30 01:20:00,48.0,46.4,29.79,SSW,202,2.5,2.5,94,0.00,,---,0.00,VWS V14.01,2013-01-30 06:20:00,
2013-01-30 01:25:00,47.8,46.2,29.76,SSW,202,3.1,3.1,94,0.00,,---,0.00,VWS V14.01,2013-01-30 06:25:00,
2013-01-30 01:30:00,48.0,46.4,29.76,WSW,248,3.6,3.6,94,0.00,,---,0.00,VWS V14.01,2013-01-30 06:30:00,
2013-01-30 01:35:00,48.0,46.4,29.76,SSW,202,3.4,3.6,94,0.00,,---,0.00,VWS V14.01,2013-01-30 06:35:00,
2013-01-30 01:40:00,48.2,46.6,29.76,WSW,248,2.9,2.9,94,0.00,,---,0.00,VWS V14.01,2013-01-30 06:40:00,
2013-01-30 01:45:00,48.2,46.6,29.76,SSW,202,2.5,3.1,94,0.00,,---,0.00,VWS V14.01,2013-01-30 06:45:00,
2013-01-30 01:50:00,48.2,46.6,29.76,SSW,202,3.8,4.3,94,0.00,,---,0.00,VWS V14.01,2013-01-30 06:50:00,
2013-01-30 01:55:00,48.2,46.6,29.76,WSW,248,3.4,3.4,94,0.00,,---,0.00,VWS V14.01,2013-01-30 06:55:00,
2013-01-30 02:00:00,48.4,46.7,29.76,SSW,202,1.6,4.0,94,0.00,,---,0.00,VWS V14.01,2013-01-30 07:00:00,
2013-01-30 02:05:00,48.2,46.6,29.76,SSW,202,2.7,2.7,94,0.00,,---,0.00,VWS V14.01,2013-01-30 07:05:00,
2013-01-30 02:10:00,48.2,46.6,29.76,SSW,202,1.3,2.5,94,0.00,,---,0.00,VWS V14.01,2013-01-30 07:10:00,
2013-01-30 02:15:00,48.2,46.6,29.76,SSW,202,3.4,3.4,94,0.00,,---,0.00,VWS V14.01,2013-01-30 07:15:00,
2013-01-30 02:20:00,48.2,46.6,29.76,SSW,202,2.0,2.7,94,0.00,,---,0.00,VWS V14.01,2013-01-30 07:20:00,
2013-01-30 02:25:00,48.0,46.7,29.76,SSW,202,2.7,2.7,95,0.00,,---,0.00,VWS V14.01,2013-01-30 07:25:00,
2013-01-30 02:30:00,48.0,46.7,29.76,SW,225,5.4,5.4,95,0.00,,---,0.00,VWS V14.01,2013-01-30 07:30:00,
2013-01-30 02:35:00,48.0,46.7,29.76,South,180,0.0,0.0,95,0.00,,---,0.00,VWS V14.01,2013-01-30 07:35:00,
2013-01-30 02:40:00,48.0,46.7,29.76,SW,225,1.3,2.7,95,0.00,,---,0.00,VWS V14.01,2013-01-30 07:40:00,
2013-01-30 02:45:00,47.8,46.5,29.76,WSW,248,4.7,4.7,95,0.00,,---,0.00,VWS V14.01,2013-01-30 07:45:00,
2013-01-30 02:50:00,47.8,46.5,29.76,SSW,202,0.0,3.8,95,0.00,,---,0.00,VWS V14.01,2013-01-30 07:50:00,
2013-01-30 02:55:00,47.7,46.3,29.74,SSW,202,2.5,2.5,95,0.00,,---,0.00,VWS V14.01,2013-01-30 07:55:00,
2013-01-30 03:00:00,47.7,46.3,29.74,SSW,202,1.6,2.9,95,0.00,,---,0.00,VWS V14.01,2013-01-30 08:00:00,
2013-01-30 03:05:00,47.7,46.3,29.74,SSE,158,2.5,2.5,95,0.00,,---,0.00,VWS V14.01,2013-01-30 08:05:00,
2013-01-30 03:10:00,47.7,46.3,29.74,SSW,202,1.6,1.6,95,0.00,,---,0.00,VWS V14.01,2013-01-30 08:10:00,
2013-01-30 03:15:00,47.7,46.3,29.74,SSW,202,1.6,1.6,95,0.00,,---,0.00,VWS V14.01,2013-01-30 08:15:00,
2013-01-30 03:20:00,47.5,46.1,29.74,SSW,202,2.9,2.9,95,0.00,,---,0.00,VWS V14.01,2013-01-30 08:20:00,
2013-01-30 03:25:00,47.5,46.1,29.71,SSW,202,1.1,2.7,95,0.00,,---,0.00,VWS V14.01,2013-01-30 08:25:00,
2013-01-30 03:30:00,47.3,45.9,29.71,SSW,202,2.5,2.5,95,0.00,,---,0.00,VWS V14.01,2013-01-30 08:30:00,
2013-01-30 03:35:00,47.3,45.9,29.71,SSW,202,2.9,2.9,95,0.00,,---,0.00,VWS V14.01,2013-01-30 08:35:00,
2013-01-30 03:40:00,47.3,45.9,29.71,SSW,202,2.5,2.5,95,0.00,,---,0.00,VWS V14.01,2013-01-30 08:40:00,
2013-01-30 03:45:00,47.3,45.9,29.71,SSW,202,1.6,2.5,95,0.00,,---,0.00,VWS V14.01,2013-01-30 08:45:00,
2013-01-30 03:50:00,47.3,45.9,29.71,SSW,202,2.0,2.5,95,0.00,,---,0.00,VWS V14.01,2013-01-30 08:50:00,
2013-01-30 03:55:00,47.3,45.9,29.71,SSW,202,2.9,2.9,95,0.00,,---,0.00,VWS V14.01,2013-01-30 08:55:00,
2013-01-30 04:00:00,47.3,45.9,29.71,South,180,3.4,3.4,95,0.00,,---,0.00,VWS V14.01,2013-01-30 09:00:00,
2013-01-30 04:05:00,47.3,45.9,29.71,SSW,202,2.5,2.5,95,0.00,,---,0.00,VWS V14.01,2013-01-30 09:05:00,
2013-01-30 04:10:00,47.3,45.9,29.68,SSW,202,3.1,3.1,95,0.00,,---,0.00,VWS V14.01,2013-01-30 09:10:00,
2013-01-30 04:15:00,47.3,45.9,29.68,SSW,202,2.0,2.0,95,0.00,,---,0.00,VWS V14.01,2013-01-30 09:15:00,
2013-01-30 04:20:00,47.3,45.9,29.68,SSW,202,3.6,3.6,95,0.00,,---,0.00,VWS V14.01,2013-01-30 09:20:00,
2013-01-30 04:25:00,47.3,45.9,29.68,SSW,202,1.3,2.7,95,0.00,,---,0.00,VWS V14.01,2013-01-30 09:25:00,
2013-01-30 04:30:00,47.3,45.9,29.68,SSW,202,3.1,3.1,95,0.00,,---,0.00,VWS V14.01,2013-01-30 09:30:00,
2013-01-30 04:35:00,47.5,46.1,29.68,SSW,202,0.0,0.0,95,0.00,,---,0.00,VWS V14.01,2013-01-30 09:35:00,
2013-01-30 04:40:00,47.5,46.1,29.68,SSW,202,0.0,2.2,95,0.00,,---,0.00,VWS V14.01,2013-01-30 09:40:00,
2013-01-30 04:45:00,47.5,46.1,29.68,SSW,202,1.6,1.6,95,0.00,,---,0.00,VWS V14.01,2013-01-30 09:45:00,
2013-01-30 04:50:00,47.5,46.4,29.68,SSW,202,0.0,0.0,96,0.00,,---,0.00,VWS V14.01,2013-01-30 09:50:00,
2013-01-30 04:55:00,47.5,46.4,29.68,SSW,202,2.5,2.5,96,0.00,,---,0.00,VWS V14.01,2013-01-30 09:55:00,
2013-01-30 05:00:00,47.5,46.4,29.68,SSW,202,3.1,3.1,96,0.00,,---,0.00,VWS V14.01,2013-01-30 10:00:00,
2013-01-30 05:05:00,47.5,46.4,29.68,SSW,202,0.0,0.0,96,0.00,,---,0.00,VWS V14.01,2013-01-30 10:05:00,
2013-01-30 05:10:00,47.3,46.2,29.68,WSW,248,0.0,0.0,96,0.00,,---,0.00,VWS V14.01,2013-01-30 10:10:00,
2013-01-30 05:15:00,47.3,46.2,29.68,WSW,248,0.0,0.0,96,0.00,,---,0.00,VWS V14.01,2013-01-30 10:15:00,
2013-01-30 05:20:00,47.3,46.2,29.68,SW,225,0.0,1.6,96,0.00,,---,0.00,VWS V14.01,2013-01-30 10:20:00,
2013-01-30 05:25:00,47.5,46.4,29.68,WSW,248,1.6,1.6,96,0.00,,---,0.00,VWS V14.01,2013-01-30 10:25:00,
2013-01-30 05:30:00,47.5,46.4,29.68,SSW,202,2.0,2.0,96,0.00,,---,0.00,VWS V14.01,2013-01-30 10:30:00,
2013-01-30 05:35:00,47.7,46.6,29.68,SSW,202,2.5,2.5,96,0.00,,---,0.00,VWS V14.01,2013-01-30 10:35:00,
2013-01-30 05:40:00,47.5,46.4,29.68,SW,225,0.0,0.0,96,0.00,,---,0.00,VWS V14.01,2013-01-30 10:40:00,
2013-01-30 05:45:00,47.7,46.6,29.68,SSW,202,0.0,1.6,96,0.00,,---,0.00,VWS V14.01,2013-01-30 10:45:00,
2013-01-30 05:50:00,47.8,46.8,29.68,SSW,202,2.9,3.4,96,0.00,,---,0.00,VWS V14.01,2013-01-30 10:50:00,
2013-01-30 05:55:00,47.8,46.8,29.68,SSW,202,0.0,0.0,96,0.00,,---,0.00,VWS V14.01,2013-01-30 10:55:00,
2013-01-30 06:00:00,47.7,46.6,29.68,SSW,202,0.9,0.9,96,0.00,,---,0.00,VWS V14.01,2013-01-30 11:00:00,
2013-01-30 06:05:00,47.7,46.6,29.68,SSW,202,1.6,2.0,96,0.00,,---,0.00,VWS V14.01,2013-01-30 11:05:00,
2013-01-30 06:10:00,47.8,46.8,29.68,SSW,202,0.0,0.0,96,0.00,,---,0.00,VWS V14.01,2013-01-30 11:10:00,
2013-01-30 06:15:00,47.8,46.8,29.68,SSW,202,1.3,2.0,96,0.00,,---,0.00,VWS V14.01,2013-01-30 11:15:00,
2013-01-30 06:20:00,48.0,46.9,29.68,SSW,202,2.5,2.5,96,0.00,,---,0.00,VWS V14.01,2013-01-30 11:20:00,
2013-01-30 06:25:00,48.0,46.9,29.68,SSW,202,3.1,3.1,96,0.00,,---,0.00,VWS V14.01,2013-01-30 11:25:00,
2013-01-30 06:30:00,47.8,46.8,29.68,SSW,202,1.3,1.6,96,0.00,,---,0.00,VWS V14.01,2013-01-30 11:30:00,
2013-01-30 06:35:00,47.7,46.6,29.68,SSW,202,0.0,0.0,96,0.00,,---,0.00,VWS V14.01,2013-01-30 11:35:00,
2013-01-30 06:40:00,47.5,46.4,29.65,SSW,202,0.0,0.0,96,0.00,,---,0.00,VWS V14.01,2013-01-30 11:40:00,
2013-01-30 06:45:00,47.3,46.2,29.65,SSW,202,0.0,0.0,96,0.00,,---,0.00,VWS V14.01,2013-01-30 11:45:00,
2013-01-30 06:50:00,46.9,45.6,29.65,SSW,202,2.5,2.5,95,0.00,,---,0.00,VWS V14.01,2013-01-30 11:50:00,
2013-01-30 06:55:00,46.9,45.6,29.65,SSW,202,0.0,0.0,95,0.00,,---,0.00,VWS V14.01,2013-01-30 11:55:00,
2013-01-30 07:00:00,46.9,45.6,29.65,SSW,202,3.4,3.4,95,0.00,,---,0.00,VWS V14.01,2013-01-30 12:00:00,
2013-01-30 07:05:00,46.6,45.2,29.65,SSW,202,1.3,1.3,95,0.00,,---,0.00,VWS V14.01,2013-01-30 12:05:00,
2013-01-30 07:10:00,46.8,45.4,29.65,SSW,202,2.5,2.5,95,0.00,,---,0.00,VWS V14.01,2013-01-30 12:10:00,
2013-01-30 07:15:00,46.6,45.2,29.65,SSW,202,2.9,2.9,95,0.00,,---,0.00,VWS V14.01,2013-01-30 12:15:00,
2013-01-30 07:20:00,46.8,45.4,29.65,SSW,202,4.9,4.9,95,0.00,,---,0.00,VWS V14.01,2013-01-30 12:20:00,
2013-01-30 07:25:00,46.8,45.4,29.65,SSW,202,2.9,3.8,95,0.00,,---,0.00,VWS V14.01,2013-01-30 12:25:00,
2013-01-30 07:30:00,46.9,45.6,29.65,South,180,2.5,3.6,95,0.00,,---,0.00,VWS V14.01,2013-01-30 12:30:00,
2013-01-30 07:35:00,47.3,46.2,29.65,SSW,202,0.0,0.0,96,0.00,,---,0.00,VWS V14.01,2013-01-30 12:35:00,
2013-01-30 07:40:00,47.5,46.4,29.65,SSW,202,2.5,2.7,96,0.00,,---,0.00,VWS V14.01,2013-01-30 12:40:00,
2013-01-30 07:45:00,48.0,46.9,29.65,SSW,202,2.5,2.7,96,0.00,,---,0.00,VWS V14.01,2013-01-30 12:45:00,
2013-01-30 07:50:00,48.2,47.1,29.65,SSW,202,2.5,2.5,96,0.00,,---,0.00,VWS V14.01,2013-01-30 12:50:00,
2013-01-30 07:55:00,48.6,47.5,29.65,SSW,202,3.8,3.8,96,0.00,,---,0.00,VWS V14.01,2013-01-30 12:55:00,
2013-01-30 08:00:00,48.9,47.8,29.65,SSW,202,2.7,2.7,96,0.00,,---,0.00,VWS V14.01,2013-01-30 13:00:00,
2013-01-30 08:05:00,49.1,48.0,29.65,SW,225,2.7,2.7,96,0.00,,---,0.00,VWS V14.01,2013-01-30 13:05:00,
2013-01-30 08:10:00,49.5,48.4,29.62,SSW,202,2.5,2.5,96,0.00,,---,0.00,VWS V14.01,2013-01-30 13:10:00,
2013-01-30 08:15:00,49.8,49.0,29.62,SSW,202,4.3,4.3,97,0.00,,---,0.00,VWS V14.01,2013-01-30 13:15:00,
2013-01-30 08:20:00,50.7,49.9,29.62,SSW,202,3.4,3.4,97,0.00,,---,0.00,VWS V14.01,2013-01-30 13:20:00,
2013-01-30 08:25:00,50.9,49.8,29.62,SSW,202,2.7,2.9,96,0.00,,---,0.00,VWS V14.01,2013-01-30 13:25:00,
2013-01-30 08:30:00,51.6,50.5,29.62,SW,225,2.9,2.9,96,0.00,,---,0.00,VWS V14.01,2013-01-30 13:30:00,
2013-01-30 08:35:00,51.6,50.5,29.62,SSW,202,3.8,3.8,96,0.00,,---,0.00,VWS V14.01,2013-01-30 13:35:00,
2013-01-30 08:40:00,51.8,50.7,29.62,SSW,202,2.7,4.0,96,0.00,,---,0.00,VWS V14.01,2013-01-30 13:40:00,
2013-01-30 08:45:00,52.2,50.8,29.62,WSW,248,2.0,2.0,95,0.00,,---,0.00,VWS V14.01,2013-01-30 13:45:00,
2013-01-30 08:50:00,52.2,50.8,29.62,SSW,202,3.6,3.6,95,0.00,,---,0.00,VWS V14.01,2013-01-30 13:50:00,
2013-01-30 08:55:00,52.2,50.8,29.62,South,180,4.0,4.0,95,0.00,,---,0.00,VWS V14.01,2013-01-30 13:55:00,
2013-01-30 09:00:00,52.2,50.8,29.62,SSW,202,3.1,3.1,95,0.00,,---,0.00,VWS V14.01,2013-01-30 14:00:00,
2013-01-30 09:05:00,52.0,50.6,29.62,NNE,22,3.6,3.6,95,0.00,,---,0.00,VWS V14.01,2013-01-30 14:05:00,
2013-01-30 09:10:00,51.8,50.1,29.62,SSE,158,2.7,2.7,94,0.00,,---,0.00,VWS V14.01,2013-01-30 14:10:00,
2013-01-30 09:15:00,51.6,50.0,29.62,SSW,202,1.1,1.1,94,0.00,,---,0.00,VWS V14.01,2013-01-30 14:15:00,
2013-01-30 09:20:00,51.6,50.0,29.62,SSW,202,3.1,3.1,94,0.00,,---,0.00,VWS V14.01,2013-01-30 14:20:00,
2013-01-30 09:25:00,51.8,50.1,29.62,SSW,202,1.6,1.6,94,0.00,,---,0.00,VWS V14.01,2013-01-30 14:25:00,
2013-01-30 09:30:00,52.0,50.3,29.62,SW,225,0.9,2.9,94,0.00,,---,0.00,VWS V14.01,2013-01-30 14:30:00,
2013-01-30 09:35:00,52.5,50.8,29.62,SSW,202,3.1,3.1,94,0.00,,---,0.00,VWS V14.01,2013-01-30 14:35:00,
2013-01-30 09:40:00,52.9,51.2,29.62,NE,45,4.3,4.3,94,0.00,,---,0.00,VWS V14.01,2013-01-30 14:40:00,
2013-01-30 09:45:00,53.2,51.6,29.62,SSW,202,4.3,4.3,94,0.00,,---,0.00,VWS V14.01,2013-01-30 14:45:00,
2013-01-30 09:50:00,53.8,52.1,29.62,SSW,202,1.6,4.0,94,0.00,,---,0.00,VWS V14.01,2013-01-30 14:50:00,
2013-01-30 09:55:00,54.0,52.3,29.59,WSW,248,3.4,3.4,94,0.00,,---,0.00,VWS V14.01,2013-01-30 14:55:00,
2013-01-30 10:00:00,54.5,52.5,29.59,South,180,3.1,10.3,93,0.00,,---,0.00,VWS V14.01,2013-01-30 15:00:00,
2013-01-30 10:05:00,54.7,52.7,29.59,WSW,248,5.6,5.6,93,0.00,,---,0.00,VWS V14.01,2013-01-30 15:05:00,
2013-01-30 10:10:00,55.0,52.8,29.59,SSW,202,4.3,4.3,92,0.00,,---,0.00,VWS V14.01,2013-01-30 15:10:00,
2013-01-30 10:15:00,55.4,52.8,29.59,SSW,202,5.8,5.8,91,0.00,,---,0.00,VWS V14.01,2013-01-30 15:15:00,
2013-01-30 10:20:00,55.4,52.8,29.59,WNW,292,11.0,11.0,91,0.00,,---,0.00,VWS V14.01,2013-01-30 15:20:00,
2013-01-30 10:25:00,55.6,52.7,29.59,SW,225,4.7,6.5,90,0.00,,---,0.00,VWS V14.01,2013-01-30 15:25:00,
2013-01-30 10:30:00,55.9,53.0,29.59,WSW,248,5.8,5.8,90,0.00,,---,0.00,VWS V14.01,2013-01-30 15:30:00,
2013-01-30 10:35:00,56.3,53.1,29.59,SSW,202,4.0,4.0,89,0.00,,---,0.00,VWS V14.01,2013-01-30 15:35:00,
2013-01-30 10:40:00,56.5,53.3,29.59,WSW,248,3.6,13.6,89,0.00,,---,0.00,VWS V14.01,2013-01-30 15:40:00,
2013-01-30 10:45:00,58.5,54.3,29.59,SW,225,4.3,4.3,86,0.00,,---,0.00,VWS V14.01,2013-01-30 15:45:00,
2013-01-30 10:50:00,58.6,54.2,29.59,WNW,292,3.1,4.9,85,0.00,,---,0.00,VWS V14.01,2013-01-30 15:50:00,
2013-01-30 10:55:00,58.8,54.0,29.56,SW,225,6.3,6.3,84,0.00,,---,0.00,VWS V14.01,2013-01-30 15:55:00,
2013-01-30 11:00:00,59.4,54.2,29.56,West,270,8.7,8.7,83,0.00,,---,0.00,VWS V14.01,2013-01-30 16:00:00,
2013-01-30 11:05:00,59.0,53.5,29.56,WSW,248,6.3,6.3,82,0.00,,---,0.00,VWS V14.01,2013-01-30 16:05:00,
2013-01-30 11:10:00,58.8,53.7,29.56,SSW,202,4.7,6.5,83,0.00,,---,0.00,VWS V14.01,2013-01-30 16:10:00,
2013-01-30 11:15:00,58.8,53.7,29.56,SSW,202,1.1,3.1,83,0.00,,---,0.00,VWS V14.01,2013-01-30 16:15:00,
2013-01-30 11:20:00,58.6,53.5,29.56,WSW,248,12.3,12.3,83,0.00,,---,0.00,VWS V14.01,2013-01-30 16:20:00,
2013-01-30 11:25:00,59.4,54.2,29.56,West,270,4.3,4.3,83,0.00,,---,0.00,VWS V14.01,2013-01-30 16:25:00,
2013-01-30 11:30:00,59.7,54.2,29.56,WSW,248,15.2,15.2,82,0.00,,---,0.00,VWS V14.01,2013-01-30 16:30:00,
2013-01-30 11:35:00,59.9,54.4,29.56,SW,225,3.1,3.1,82,0.00,,---,0.00,VWS V14.01,2013-01-30 16:35:00,
2013-01-30 11:40:00,60.1,54.6,29.56,West,270,11.0,11.0,82,0.00,,---,0.00,VWS V14.01,2013-01-30 16:40:00,
2013-01-30 11:45:00,59.9,54.4,29.56,NW,315,6.5,7.6,82,0.00,,---,0.00,VWS V14.01,2013-01-30 16:45:00,
2013-01-30 11:50:00,60.4,54.9,29.56,WSW,248,7.6,7.6,82,0.00,,---,0.00,VWS V14.01,2013-01-30 16:50:00,
2013-01-30 11:55:00,60.3,54.8,29.53,SSW,202,4.0,8.7,82,0.00,,---,0.00,VWS V14.01,2013-01-30 16:55:00,
2013-01-30 12:00:00,60.6,55.1,29.53,West,270,2.7,5.8,82,0.00,,---,0.00,VWS V14.01,2013-01-30 17:00:00,
2013-01-30 12:05:00,61.3,55.5,29.53,WSW,248,11.9,11.9,81,0.00,,---,0.00,VWS V14.01,2013-01-30 17:05:00,
2013-01-30 12:10:00,62.2,56.3,29.53,SSW,202,3.6,5.8,81,0.00,,---,0.00,VWS V14.01,2013-01-30 17:10:00,
2013-01-30 12:15:00,63.0,56.3,29.53,SW,225,8.1,8.1,79,0.00,,---,0.00,VWS V14.01,2013-01-30 17:15:00,
2013-01-30 12:20:00,63.3,56.3,29.53,SSW,202,5.4,10.1,78,0.00,,---,0.00,VWS V14.01,2013-01-30 17:20:00,
2013-01-30 12:25:00,63.0,55.7,29.50,SSW,202,5.6,5.6,77,0.00,,---,0.00,VWS V14.01,2013-01-30 17:25:00,
2013-01-30 12:30:00,62.6,54.9,29.50,SSW,202,13.6,13.6,76,0.00,,---,0.00,VWS V14.01,2013-01-30 17:30:00,
2013-01-30 12:35:00,62.8,55.5,29.50,WSW,248,4.7,4.7,77,0.00,,---,0.00,VWS V14.01,2013-01-30 17:35:00,
2013-01-30 12:40:00,62.2,55.0,29.50,SSW,202,4.0,5.4,77,0.00,,---,0.00,VWS V14.01,2013-01-30 17:40:00,
2013-01-30 12:45:00,62.4,54.8,29.50,SW,225,6.0,6.0,76,0.00,,---,0.00,VWS V14.01,2013-01-30 17:45:00,
2013-01-30 12:50:00,62.4,55.1,29.50,WSW,248,8.7,8.7,77,0.00,,---,0.00,VWS V14.01,2013-01-30 17:50:00,
2013-01-30 12:55:00,62.6,54.9,29.50,WSW,248,5.8,5.8,76,0.00,,---,0.00,VWS V14.01,2013-01-30 17:55:00,
2013-01-30 13:00:00,63.7,55.6,29.50,SSW,202,3.4,5.4,75,0.00,,---,0.00,VWS V14.01,2013-01-30 18:00:00,
2013-01-30 13:05:00,64.6,55.7,29.50,SSW,202,5.4,6.3,73,0.00,,---,0.00,VWS V14.01,2013-01-30 18:05:00,
2013-01-30 13:10:00,64.6,55.4,29.47,SSW,202,4.0,4.0,72,0.00,,---,0.00,VWS V14.01,2013-01-30 18:10:00,
2013-01-30 13:15:00,64.4,55.2,29.47,WSW,248,7.6,7.6,72,0.00,,---,0.00,VWS V14.01,2013-01-30 18:15:00,
2013-01-30 13:20:00,64.9,55.7,29.47,West,270,4.0,5.8,72,0.00,,---,0.00,VWS V14.01,2013-01-30 18:20:00,
2013-01-30 13:25:00,65.3,55.7,29.47,West,270,13.4,13.4,71,0.00,,---,0.00,VWS V14.01,2013-01-30 18:25:00,
2013-01-30 13:30:00,64.8,55.2,29.47,SSW,202,3.1,5.8,71,0.00,,---,0.00,VWS V14.01,2013-01-30 18:30:00,
2013-01-30 13:35:00,64.9,55.7,29.47,WSW,248,4.0,4.0,72,0.00,,---,0.00,VWS V14.01,2013-01-30 18:35:00,
2013-01-30 13:40:00,65.1,55.5,29.44,SSW,202,3.8,8.5,71,0.00,,---,0.00,VWS V14.01,2013-01-30 18:40:00,
2013-01-30 13:45:00,65.1,55.5,29.44,WSW,248,4.9,5.6,71,0.00,,---,0.00,VWS V14.01,2013-01-30 18:45:00,
2013-01-30 13:50:00,64.9,55.3,29.44,WSW,248,5.6,5.6,71,0.00,,---,0.00,VWS V14.01,2013-01-30 18:50:00,
2013-01-30 13:55:00,64.9,55.3,29.44,WSW,248,3.8,3.8,71,0.00,,---,0.00,VWS V14.01,2013-01-30 18:55:00,
2013-01-30 14:00:00,64.4,54.8,29.44,WSW,248,4.9,4.9,71,0.00,,---,0.00,VWS V14.01,2013-01-30 19:00:00,
2013-01-30 14:05:00,64.4,54.8,29.44,SW,225,7.8,7.8,71,0.00,,---,0.00,VWS V14.01,2013-01-30 19:05:00,
2013-01-30 14:10:00,64.0,54.8,29.41,SSW,202,3.8,5.4,72,0.00,,---,0.00,VWS V14.01,2013-01-30 19:10:00,
2013-01-30 14:15:00,63.7,54.5,29.41,WSW,248,7.4,8.1,72,0.00,,---,0.00,VWS V14.01,2013-01-30 19:15:00,
2013-01-30 14:20:00,63.3,54.2,29.41,SSW,202,4.0,4.0,72,0.00,,---,0.00,VWS V14.01,2013-01-30 19:20:00,
2013-01-30 14:25:00,64.0,54.8,29.41,South,180,4.3,4.3,72,0.00,,---,0.00,VWS V14.01,2013-01-30 19:25:00,
2013-01-30 14:30:00,63.5,54.3,29.41,WSW,248,6.0,8.7,72,0.00,,---,0.00,VWS V14.01,2013-01-30 19:30:00,
2013-01-30 14:35:00,63.1,54.0,29.41,SSE,158,6.9,14.8,72,0.00,,---,0.00,VWS V14.01,2013-01-30 19:35:00,
2013-01-30 14:40:00,63.1,54.0,29.44,South,180,3.1,4.3,72,0.00,,---,0.00,VWS V14.01,2013-01-30 19:40:00,
2013-01-30 14:45:00,63.3,54.2,29.44,ENE,68,6.0,6.0,72,0.00,,---,0.00,VWS V14.01,2013-01-30 19:45:00,
2013-01-30 14:50:00,63.7,54.5,29.44,SSW,202,4.3,4.7,72,0.00,,---,0.00,VWS V14.01,2013-01-30 19:50:00,
2013-01-30 14:55:00,63.0,53.8,29.44,South,180,6.3,6.3,72,0.00,,---,0.00,VWS V14.01,2013-01-30 19:55:00,
2013-01-30 15:00:00,62.2,53.5,29.44,SSW,202,3.8,5.8,73,0.00,,---,0.00,VWS V14.01,2013-01-30 20:00:00,
2013-01-30 15:05:00,62.1,53.3,29.44,SW,225,4.9,4.9,73,0.00,,---,0.00,VWS V14.01,2013-01-30 20:05:00,
2013-01-30 15:10:00,61.5,53.2,29.41,NW,315,5.8,8.7,74,0.00,,---,0.00,VWS V14.01,2013-01-30 20:10:00,
2013-01-30 15:15:00,61.3,53.0,29.41,SW,225,3.4,5.4,74,0.00,,---,0.00,VWS V14.01,2013-01-30 20:15:00,
2013-01-30 15:20:00,61.0,53.0,29.41,SSW,202,4.9,6.0,75,0.00,,---,0.00,VWS V14.01,2013-01-30 20:20:00,
2013-01-30 15:25:00,61.0,53.4,29.41,SSW,202,2.7,2.7,76,0.00,,---,0.00,VWS V14.01,2013-01-30 20:25:00,
2013-01-30 15:30:00,61.0,53.4,29.41,WSW,248,4.0,9.8,76,0.00,,---,0.00,VWS V14.01,2013-01-30 20:30:00,
2013-01-30 15:35:00,61.0,53.7,29.41,WSW,248,9.6,10.5,77,0.00,,---,0.00,VWS V14.01,2013-01-30 20:35:00,
2013-01-30 15:40:00,61.2,53.9,29.44,WSW,248,9.8,9.8,77,0.00,,---,0.00,VWS V14.01,2013-01-30 20:40:00,
2013-01-30 15:45:00,61.3,53.7,29.44,SSW,202,6.3,6.3,76,0.00,,---,0.00,VWS V14.01,2013-01-30 20:45:00,
2013-01-30 15:50:00,61.2,53.5,29.44,West,270,4.0,4.0,76,0.00,,---,0.00,VWS V14.01,2013-01-30 20:50:00,
2013-01-30 15:55:00,61.2,53.9,29.41,SSE,158,4.7,12.8,77,0.00,,---,0.00,VWS V14.01,2013-01-30 20:55:00,
2013-01-30 16:00:00,60.6,53.4,29.41,SSW,202,7.6,11.0,77,0.00,,---,0.00,VWS V14.01,2013-01-30 21:00:00,
2013-01-30 16:05:00,60.4,53.6,29.41,SSW,202,7.6,7.8,78,0.00,,---,0.00,VWS V14.01,2013-01-30 21:05:00,
2013-01-30 16:10:00,60.1,53.2,29.41,WSW,248,6.5,7.6,78,0.00,,---,0.00,VWS V14.01,2013-01-30 21:10:00,
2013-01-30 16:15:00,59.9,53.4,29.41,WNW,292,4.0,5.8,79,0.00,,---,0.00,VWS V14.01,2013-01-30 21:15:00,
2013-01-30 16:20:00,59.7,53.5,29.41,SSE,158,7.2,8.5,80,0.00,,---,0.00,VWS V14.01,2013-01-30 21:20:00,
2013-01-30 16:25:00,59.7,53.5,29.41,WSW,248,3.8,3.8,80,0.00,,---,0.00,VWS V14.01,2013-01-30 21:25:00,
2013-01-30 16:30:00,59.5,53.4,29.41,SSE,158,3.4,8.5,80,0.00,,---,0.00,VWS V14.01,2013-01-30 21:30:00,
2013-01-30 16:35:00,59.7,53.5,29.41,SW,225,3.6,3.6,80,0.00,,---,0.00,VWS V14.01,2013-01-30 21:35:00,
2013-01-30 16:40:00,59.7,53.9,29.38,WSW,248,8.1,8.1,81,0.00,,---,0.00,VWS V14.01,2013-01-30 21:40:00,
2013-01-30 16:45:00,59.7,53.9,29.38,WSW,248,6.5,8.5,81,0.00,,---,0.00,VWS V14.01,2013-01-30 21:45:00,
2013-01-30 16:50:00,59.5,53.7,29.38,WSW,248,8.7,8.7,81,0.00,,---,0.00,VWS V14.01,2013-01-30 21:50:00,
2013-01-30 16:55:00,59.4,53.5,29.38,SSE,158,8.5,8.5,81,0.00,,---,0.00,VWS V14.01,2013-01-30 21:55:00,
2013-01-30 17:00:00,59.4,53.5,29.38,WSW,248,6.0,6.5,81,0.00,,---,0.00,VWS V14.01,2013-01-30 22:00:00,
2013-01-30 17:05:00,59.4,53.9,29.38,SSW,202,6.3,6.5,82,0.00,,---,0.00,VWS V14.01,2013-01-30 22:05:00,
2013-01-30 17:10:00,59.4,53.9,29.38,SSW,202,4.3,6.0,82,0.00,,---,0.00,VWS V14.01,2013-01-30 22:10:00,
2013-01-30 17:15:00,59.4,53.9,29.38,SSE,158,5.4,5.4,82,0.00,,---,0.00,VWS V14.01,2013-01-30 22:15:00,
2013-01-30 17:20:00,59.2,53.7,29.38,WSW,248,8.1,8.1,82,0.00,,---,0.00,VWS V14.01,2013-01-30 22:20:00,
2013-01-30 17:25:00,59.2,53.7,29.38,SSW,202,8.7,14.8,82,0.00,,---,0.00,VWS V14.01,2013-01-30 22:25:00,
2013-01-30 17:30:00,59.2,53.7,29.38,WSW,248,17.9,17.9,82,0.00,,---,0.00,VWS V14.01,2013-01-30 22:30:00,
2013-01-30 17:35:00,59.4,54.2,29.38,SSW,202,6.0,6.0,83,0.00,,---,0.00,VWS V14.01,2013-01-30 22:35:00,
2013-01-30 17:40:00,59.7,54.6,29.38,SSW,202,10.5,15.2,83,0.00,,---,0.00,VWS V14.01,2013-01-30 22:40:00,
2013-01-30 17:45:00,59.7,54.6,29.38,WSW,248,7.6,7.6,83,0.00,,---,0.00,VWS V14.01,2013-01-30 22:45:00,
2013-01-30 17:50:00,59.7,54.6,29.38,West,270,8.1,15.4,83,0.00,,---,0.00,VWS V14.01,2013-01-30 22:50:00,
2013-01-30 17:55:00,59.7,54.6,29.35,SSW,202,6.9,10.3,83,0.00,,---,0.00,VWS V14.01,2013-01-30 22:55:00,
2013-01-30 18:00:00,59.9,54.7,29.35,WSW,248,20.8,20.8,83,0.00,,---,0.00,VWS V14.01,2013-01-30 23:00:00,
2013-01-30 18:05:00,59.9,55.1,29.35,WSW,248,17.5,17.5,84,0.00,,---,0.00,VWS V14.01,2013-01-30 23:05:00,
2013-01-30 18:10:00,60.1,55.6,29.35,NW,315,6.0,15.2,85,0.00,,---,0.00,VWS V14.01,2013-01-30 23:10:00,
2013-01-30 18:15:00,60.1,55.2,29.35,WNW,292,7.6,7.6,84,0.00,,---,0.00,VWS V14.01,2013-01-30 23:15:00,
2013-01-30 18:20:00,60.3,55.7,29.35,WSW,248,15.7,15.7,85,0.00,,---,0.00,VWS V14.01,2013-01-30 23:20:00,
2013-01-30 18:25:00,60.4,55.9,29.35,WSW,248,11.0,11.0,85,0.00,,---,0.00,VWS V14.01,2013-01-30 23:25:00,
2013-01-30 18:30:00,60.4,55.9,29.35,SSW,202,6.5,6.5,85,0.00,,---,0.00,VWS V14.01,2013-01-30 23:30:00,
2013-01-30 18:35:00,60.4,55.9,29.35,WNW,292,13.2,13.2,85,0.00,,---,0.00,VWS V14.01,2013-01-30 23:35:00,
2013-01-30 18:40:00,60.4,55.9,29.35,WSW,248,5.4,5.8,85,0.00,,---,0.00,VWS V14.01,2013-01-30 23:40:00,
2013-01-30 18:45:00,60.4,55.9,29.35,West,270,6.5,6.5,85,0.00,,---,0.00,VWS V14.01,2013-01-30 23:45:00,
2013-01-30 18:50:00,60.3,55.7,29.35,WSW,248,10.3,10.3,85,0.00,,---,0.00,VWS V14.01,2013-01-30 23:50:00,
2013-01-30 18:55:00,60.1,55.6,29.35,WSW,248,18.8,18.8,85,0.00,,---,0.00,VWS V14.01,2013-01-30 23:55:00,
2013-01-30 19:00:00,60.1,55.9,29.35,SSW,202,4.3,9.6,86,0.00,,---,0.00,VWS V14.01,2013-01-31 00:00:00,
2013-01-30 19:05:00,60.1,55.9,29.35,ENE,68,10.1,10.1,86,0.00,,---,0.00,VWS V14.01,2013-01-31 00:05:00,
2013-01-30 19:10:00,60.1,56.2,29.35,WSW,248,12.8,12.8,87,0.00,,---,0.00,VWS V14.01,2013-01-31 00:10:00,
2013-01-30 19:15:00,60.1,56.2,29.35,SW,225,8.5,8.5,87,0.00,,---,0.00,VWS V14.01,2013-01-31 00:15:00,
2013-01-30 19:20:00,59.9,56.0,29.35,SSW,202,6.3,6.3,87,0.00,,---,0.00,VWS V14.01,2013-01-31 00:20:00,
2013-01-30 19:25:00,59.9,56.0,29.35,SW,225,10.5,10.5,87,0.00,,---,0.00,VWS V14.01,2013-01-31 00:25:00,
2013-01-30 19:30:00,59.9,55.7,29.35,West,270,3.8,14.8,86,0.00,,---,0.00,VWS V14.01,2013-01-31 00:30:00,
2013-01-30 19:35:00,59.7,55.8,29.35,SSW,202,5.8,14.1,87,0.00,,---,0.00,VWS V14.01,2013-01-31 00:35:00,
2013-01-30 19:40:00,59.7,55.8,29.35,SSW,202,3.1,3.1,87,0.00,,---,0.00,VWS V14.01,2013-01-31 00:40:00,
2013-01-30 19:45:00,59.7,55.8,29.35,West,270,11.2,13.6,87,0.00,,---,0.00,VWS V14.01,2013-01-31 00:45:00,
2013-01-30 19:50:00,59.7,55.8,29.35,WSW,248,4.3,4.3,87,0.00,,---,0.00,VWS V14.01,2013-01-31 00:50:00,
2013-01-30 19:55:00,59.7,55.5,29.32,SSW,202,9.6,18.6,86,0.00,,---,0.00,VWS V14.01,2013-01-31 00:55:00,
2013-01-30 20:00:00,59.7,55.8,29.32,SSW,202,12.5,12.5,87,0.00,,---,0.00,VWS V14.01,2013-01-31 01:00:00,
2013-01-30 20:05:00,59.7,55.8,29.32,SW,225,14.5,14.8,87,0.00,,---,0.00,VWS V14.01,2013-01-31 01:05:00,
2013-01-30 20:10:00,59.7,55.8,29.32,SSW,202,14.3,14.3,87,0.00,,---,0.00,VWS V14.01,2013-01-31 01:10:00,
2013-01-30 20:15:00,59.7,55.8,29.32,SW,225,10.5,10.5,87,0.00,,---,0.00,VWS V14.01,2013-01-31 01:15:00,
2013-01-30 20:20:00,59.7,56.2,29.32,WSW,248,10.3,10.3,88,0.00,,---,0.00,VWS V14.01,2013-01-31 01:20:00,
2013-01-30 20:25:00,59.9,56.3,29.29,West,270,9.6,13.2,88,0.00,,---,0.00,VWS V14.01,2013-01-31 01:25:00,
2013-01-30 20:30:00,59.9,56.3,29.29,WSW,248,7.4,7.4,88,0.00,,---,0.00,VWS V14.01,2013-01-31 01:30:00,
2013-01-30 20:35:00,60.1,56.5,29.29,SSW,202,6.0,6.0,88,0.00,,---,0.00,VWS V14.01,2013-01-31 01:35:00,
2013-01-30 20:40:00,60.1,56.5,29.29,West,270,7.8,7.8,88,0.00,,---,0.00,VWS V14.01,2013-01-31 01:40:00,
2013-01-30 20:45:00,60.3,57.0,29.29,South,180,5.6,5.8,89,0.00,,---,0.00,VWS V14.01,2013-01-31 01:45:00,
2013-01-30 20:50:00,60.3,56.7,29.29,SSW,202,7.2,7.2,88,0.00,,---,0.00,VWS V14.01,2013-01-31 01:50:00,
2013-01-30 20:55:00,60.3,56.7,29.29,SSW,202,12.8,12.8,88,0.00,,---,0.00,VWS V14.01,2013-01-31 01:55:00,
2013-01-30 21:00:00,60.4,56.9,29.29,WSW,248,21.0,21.0,88,0.00,,---,0.00,VWS V14.01,2013-01-31 02:00:00,
2013-01-30 21:05:00,60.6,57.4,29.29,SW,225,4.7,10.3,89,0.00,,---,0.00,VWS V14.01,2013-01-31 02:05:00,
2013-01-30 21:10:00,60.6,57.4,29.29,WSW,248,7.6,11.2,89,0.00,,---,0.00,VWS V14.01,2013-01-31 02:10:00,
2013-01-30 21:15:00,60.4,56.9,29.29,WSW,248,14.8,14.8,88,0.00,,---,0.00,VWS V14.01,2013-01-31 02:15:00,
2013-01-30 21:20:00,60.4,56.9,29.29,WSW,248,13.0,13.0,88,0.00,,---,0.00,VWS V14.01,2013-01-31 02:20:00,
2013-01-30 21:25:00,60.4,57.2,29.26,WSW,248,12.5,12.5,89,0.00,,---,0.00,VWS V14.01,2013-01-31 02:25:00,
2013-01-30 21:30:00,60.4,57.2,29.26,SW,225,9.6,9.6,89,0.00,,---,0.00,VWS V14.01,2013-01-31 02:30:00,
2013-01-30 21:35:00,60.3,57.0,29.26,NW,315,8.7,8.7,89,0.00,,---,0.00,VWS V14.01,2013-01-31 02:35:00,
2013-01-30 21:40:00,60.3,57.0,29.26,SSW,202,5.6,9.8,89,0.00,,---,0.00,VWS V14.01,2013-01-31 02:40:00,
2013-01-30 21:45:00,60.1,56.8,29.26,WSW,248,7.8,7.8,89,0.00,,---,0.00,VWS V14.01,2013-01-31 02:45:00,
2013-01-30 21:50:00,60.1,56.8,29.26,WNW,292,7.6,7.6,89,0.00,,---,0.00,VWS V14.01,2013-01-31 02:50:00,
2013-01-30 21:55:00,60.1,56.8,29.26,WSW,248,6.5,6.5,89,0.00,,---,0.00,VWS V14.01,2013-01-31 02:55:00,
2013-01-30 22:00:00,59.9,56.7,29.26,WSW,248,13.2,13.2,89,0.00,,---,0.00,VWS V14.01,2013-01-31 03:00:00,
2013-01-30 22:05:00,59.7,56.5,29.26,SSW,202,10.5,10.5,89,0.00,,---,0.00,VWS V14.01,2013-01-31 03:05:00,
2013-01-30 22:10:00,59.5,56.6,29.23,WSW,248,6.9,6.9,90,0.00,,---,0.00,VWS V14.01,2013-01-31 03:10:00,
2013-01-30 22:15:00,59.4,56.1,29.23,WSW,248,8.7,8.7,89,0.00,,---,0.00,VWS V14.01,2013-01-31 03:15:00,
2013-01-30 22:20:00,59.4,56.1,29.23,SSW,202,10.7,10.7,89,0.00,,---,0.00,VWS V14.01,2013-01-31 03:20:00,
2013-01-30 22:25:00,59.4,56.4,29.23,SW,225,6.5,6.5,90,0.00,,---,0.00,VWS V14.01,2013-01-31 03:25:00,
2013-01-30 22:30:00,59.4,56.4,29.23,WSW,248,3.4,3.4,90,0.00,,---,0.00,VWS V14.01,2013-01-31 03:30:00,
2013-01-30 22:35:00,59.4,56.4,29.23,West,270,11.0,11.0,90,0.00,,---,0.00,VWS V14.01,2013-01-31 03:35:00,
2013-01-30 22:40:00,59.5,56.9,29.20,NNW,338,10.7,10.7,91,0.00,,---,0.00,VWS V14.01,2013-01-31 03:40:00,
2013-01-30 22:45:00,59.7,57.1,29.20,West,270,10.3,10.3,91,0.00,,---,0.00,VWS V14.01,2013-01-31 03:45:00,
2013-01-30 22:50:00,59.7,57.1,29.20,WSW,248,5.4,5.4,91,0.00,,---,0.00,VWS V14.01,2013-01-31 03:50:00,
2013-01-30 22:55:00,59.7,57.1,29.20,WSW,248,13.4,13.4,91,0.00,,---,0.00,VWS V14.01,2013-01-31 03:55:00,
2013-01-30 23:00:00,59.9,57.3,29.20,WSW,248,19.7,19.7,91,0.00,,---,0.00,VWS V14.01,2013-01-31 04:00:00,
2013-01-30 23:05:00,59.9,57.3,29.20,WNW,292,3.4,7.4,91,0.00,,---,0.00,VWS V14.01,2013-01-31 04:05:00,
2013-01-30 23:10:00,59.9,57.3,29.20,WSW,248,21.0,21.0,91,0.00,,---,0.00,VWS V14.01,2013-01-31 04:10:00,
2013-01-30 23:15:00,60.1,57.5,29.20,WSW,248,16.1,16.1,91,0.00,,---,0.00,VWS V14.01,2013-01-31 04:15:00,
2013-01-30 23:20:00,59.9,57.3,29.20,SSE,158,6.0,6.0,91,0.00,,---,0.00,VWS V14.01,2013-01-31 04:20:00,
2013-01-30 23:25:00,59.7,57.1,29.17,West,270,12.5,12.5,91,0.00,,---,0.00,VWS V14.01,2013-01-31 04:25:00,
2013-01-30 23:30:00,59.5,57.2,29.17,WSW,248,9.0,9.0,92,0.00,,---,0.00,VWS V14.01,2013-01-31 04:30:00,
2013-01-30 23:35:00,59.4,57.0,29.17,SW,225,15.4,15.4,92,0.00,,---,0.00,VWS V14.01,2013-01-31 04:35:00,
2013-01-30 23:40:00,59.4,57.3,29.14,South,180,4.0,4.0,93,0.00,,---,0.00,VWS V14.01,2013-01-31 04:40:00,
2013-01-30 23:45:00,59.4,57.3,29.14,WSW,248,16.8,16.8,93,0.00,,---,0.00,VWS V14.01,2013-01-31 04:45:00,
2013-01-30 23:50:00,59.2,57.2,29.14,WSW,248,5.4,5.4,93,0.00,,---,0.00,VWS V14.01,2013-01-31 04:50:00,
2013-01-30 23:55:00,59.2,57.2,29.14,WSW,248,7.8,7.8,93,0.00,,---,0.00,VWS V14.01,2013-01-31 04:55:00,